Time;durP1;ratioP1;P1;durP2;ratioP2;P2;SDS_P1;SDS_P2;PMS_P1;PMS_P2;Temp;Humidity;BMP_temperature;BMP_pressure;BME280_temperature;BME280_humidity;BME280_pressure;Samples;Min_cycle;Max_cycle;Signal;HPM_P1;HPM_P2
2023/08/02 00:00:56;;;;;;;3.77;2.17;;;;;;;;;;5035457;28;20486;-78
2023/08/02 00:03:24;;;;;;;2.37;2.00;;;;;;;;;;5035777;28;20454;-78
2023/08/02 00:05:54;;;;;;;4.67;1.77;;;;;;;;;;5036035;28;20457;-78
2023/08/02 00:08:21;;;;;;;5.30;2.40;;;;;;;;;;5036089;28;20949;-78
2023/08/02 00:10:49;;;;;;;3.77;2.70;;;;;;;;;;5036535;28;20811;-78
2023/08/02 00:13:16;;;;;;;2.10;1.90;;;;;;;;;;5035814;28;20450;-78
2023/08/02 00:15:44;;;;;;;8.43;2.53;;;;;;;;;;5036202;28;20460;-78
2023/08/02 00:18:12;;;;;;;3.57;2.10;;;;;;;;;;5036137;28;20458;-78
2023/08/02 00:20:40;;;;;;;2.20;1.70;;;;;;;;;;5036792;28;20462;-78
2023/08/02 00:23:07;;;;;;;3.53;2.70;;;;;;;;;;5036626;28;20461;-78
2023/08/02 00:25:34;;;;;;;3.87;3.47;;;;;;;;;;5036535;28;20449;-78
2023/08/02 00:28:01;;;;;;;2.10;1.83;;;;;;;;;;5035865;28;20449;-78
2023/08/02 00:30:30;;;;;;;2.23;2.03;;;;;;;;;;5035544;28;20824;-79
2023/08/02 00:32:59;;;;;;;2.60;2.10;;;;;;;;;;5035775;28;20476;-79
2023/08/02 00:35:26;;;;;;;2.10;1.70;;;;;;;;;;5035739;28;20460;-78
2023/08/02 00:37:53;;;;;;;2.70;1.97;;;;;;;;;;5037976;28;20827;-79
2023/08/02 00:40:26;;;;;;;2.17;1.97;;;;;;;;;;5039525;28;20441;-78
2023/08/02 00:42:53;;;;;;;3.80;2.03;;;;;;;;;;5039193;28;20892;-79
2023/08/02 00:45:20;;;;;;;3.00;1.83;;;;;;;;;;5038579;28;20461;-79
2023/08/02 00:47:47;;;;;;;3.17;2.30;;;;;;;;;;5039347;28;20495;-78
2023/08/02 00:50:16;;;;;;;4.07;1.90;;;;;;;;;;5039317;28;21045;-78
2023/08/02 00:52:43;;;;;;;2.20;1.90;;;;;;;;;;5039670;28;20461;-79
2023/08/02 00:55:10;;;;;;;3.30;2.27;;;;;;;;;;5039121;28;20450;-77
2023/08/02 00:57:37;;;;;;;2.60;2.40;;;;;;;;;;5038836;28;20468;-78
2023/08/02 01:00:05;;;;;;;7.03;2.33;;;;;;;;;;5039667;28;20438;-78
2023/08/02 01:02:32;;;;;;;3.40;1.90;;;;;;;;;;5039364;28;20541;-78
2023/08/02 01:04:59;;;;;;;2.10;1.90;;;;;;;;;;5038880;28;20909;-78
2023/08/02 01:07:30;;;;;;;3.27;2.00;;;;;;;;;;5038640;28;20866;-78
2023/08/02 01:10:03;;;;;;;3.33;2.67;;;;;;;;;;5039174;28;20446;-78
2023/08/02 01:12:31;;;;;;;2.50;2.03;;;;;;;;;;5038928;28;20473;-78
2023/08/02 01:15:00;;;;;;;3.13;2.20;;;;;;;;;;5038684;28;20456;-78
2023/08/02 01:17:28;;;;;;;3.40;1.87;;;;;;;;;;5039506;28;20459;-78
2023/08/02 01:19:55;;;;;;;2.47;1.90;;;;;;;;;;5038923;28;20438;-78
2023/08/02 01:22:24;;;;;;;3.67;2.60;;;;;;;;;;5039334;28;20659;-78
2023/08/02 01:24:51;;;;;;;6.90;1.87;;;;;;;;;;5038410;28;20449;-78
2023/08/02 01:27:19;;;;;;;6.27;1.90;;;;;;;;;;5038302;28;20453;-78
2023/08/02 01:29:48;;;;;;;3.17;2.20;;;;;;;;;;5038764;28;20438;-78
2023/08/02 01:32:15;;;;;;;3.20;2.20;;;;;;;;;;5038929;28;20833;-78
2023/08/02 01:34:43;;;;;;;2.80;2.30;;;;;;;;;;5038788;28;20442;-78
2023/08/02 01:37:10;;;;;;;6.30;2.17;;;;;;;;;;5038045;28;20446;-78
2023/08/02 01:39:38;;;;;;;2.03;1.83;;;;;;;;;;5038149;28;20456;-78
2023/08/02 01:42:06;;;;;;;2.20;2.00;;;;;;;;;;5036780;28;20490;-77
2023/08/02 01:44:33;;;;;;;4.00;2.37;;;;;;;;;;5038025;28;20450;-78
2023/08/02 01:47:00;;;;;;;1.90;1.63;;;;;;;;;;5037848;28;20485;-77
2023/08/02 01:49:27;;;;;;;5.30;2.23;;;;;;;;;;5038173;28;20456;-78
2023/08/02 01:51:54;;;;;;;2.90;2.53;;;;;;;;;;5038383;28;20829;-77
2023/08/02 01:54:21;;;;;;;3.20;2.20;;;;;;;;;;5038411;28;20939;-77
2023/08/02 01:56:50;;;;;;;2.10;1.80;;;;;;;;;;5037768;28;20449;-78
2023/08/02 01:59:17;;;;;;;3.30;2.63;;;;;;;;;;5038105;28;20450;-78
2023/08/02 02:01:44;;;;;;;3.50;2.07;;;;;;;;;;5037861;28;20868;-78
2023/08/02 02:04:11;;;;;;;4.33;2.97;;;;;;;;;;5038416;28;20438;-78
2023/08/02 02:06:38;;;;;;;2.63;2.10;;;;;;;;;;5038025;28;20456;-78
2023/08/02 02:09:05;;;;;;;2.80;2.23;;;;;;;;;;5037734;28;20457;-78
2023/08/02 02:11:32;;;;;;;2.50;2.20;;;;;;;;;;5037462;28;20811;-78
2023/08/02 02:14:01;;;;;;;3.93;2.80;;;;;;;;;;5037588;28;20458;-78
2023/08/02 02:16:28;;;;;;;2.77;2.37;;;;;;;;;;5037925;28;20938;-78
2023/08/02 02:18:55;;;;;;;3.97;2.73;;;;;;;;;;5037255;28;20449;-78
2023/08/02 02:21:22;;;;;;;3.37;2.50;;;;;;;;;;5037280;28;20850;-78
2023/08/02 02:23:49;;;;;;;4.77;2.50;;;;;;;;;;5037982;28;20454;-77
2023/08/02 02:26:16;;;;;;;3.87;2.83;;;;;;;;;;5038260;28;20450;-77
2023/08/02 02:28:43;;;;;;;2.90;2.20;;;;;;;;;;5037845;28;20439;-78
2023/08/02 02:31:12;;;;;;;2.80;2.40;;;;;;;;;;5037446;28;20470;-78
2023/08/02 02:33:39;;;;;;;2.93;2.63;;;;;;;;;;5038027;28;20441;-78
2023/08/02 02:36:06;;;;;;;4.60;2.60;;;;;;;;;;5037748;28;20819;-78
2023/08/02 02:38:33;;;;;;;2.73;2.43;;;;;;;;;;5036991;28;20541;-78
2023/08/02 02:41:00;;;;;;;2.87;2.30;;;;;;;;;;5036637;28;20564;-78
2023/08/02 02:43:27;;;;;;;4.07;2.27;;;;;;;;;;5037598;28;20485;-78
2023/08/02 02:45:55;;;;;;;4.13;2.93;;;;;;;;;;5037349;28;20460;-78
2023/08/02 02:48:23;;;;;;;2.83;2.23;;;;;;;;;;5037622;28;20830;-77
2023/08/02 02:50:50;;;;;;;3.20;2.40;;;;;;;;;;5037707;28;20454;-78
2023/08/02 02:53:20;;;;;;;3.60;2.23;;;;;;;;;;5037683;28;20450;-78
2023/08/02 02:55:47;;;;;;;4.13;2.30;;;;;;;;;;5037201;28;20449;-78
2023/08/02 02:58:14;;;;;;;3.67;2.60;;;;;;;;;;5037331;28;20457;-78
2023/08/02 03:00:41;;;;;;;2.80;2.20;;;;;;;;;;5036186;28;20445;-78
2023/08/02 03:03:09;;;;;;;3.97;3.07;;;;;;;;;;5036863;28;20492;-78
2023/08/02 03:05:38;;;;;;;5.03;2.70;;;;;;;;;;5037584;28;20454;-77
2023/08/02 03:08:05;;;;;;;3.67;2.90;;;;;;;;;;5036882;28;20441;-77
2023/08/02 03:10:33;;;;;;;4.90;3.10;;;;;;;;;;5036689;28;20450;-77
2023/08/02 03:13:00;;;;;;;4.37;3.13;;;;;;;;;;5036033;28;20466;-77
2023/08/02 03:15:27;;;;;;;3.63;2.70;;;;;;;;;;5036117;28;20469;-78
2023/08/02 03:17:54;;;;;;;5.60;3.00;;;;;;;;;;5035909;28;20830;-78
2023/08/02 03:20:21;;;;;;;3.83;2.77;;;;;;;;;;5036291;28;20456;-77
2023/08/02 03:22:49;;;;;;;5.20;2.63;;;;;;;;;;5036546;28;20485;-77
2023/08/02 03:25:17;;;;;;;5.93;3.10;;;;;;;;;;5036899;28;20447;-78
2023/08/02 03:27:44;;;;;;;2.50;2.20;;;;;;;;;;5035990;28;20461;-78
2023/08/02 03:30:11;;;;;;;4.57;2.80;;;;;;;;;;5036154;28;20468;-78
2023/08/02 03:32:38;;;;;;;3.33;2.73;;;;;;;;;;5036041;28;20536;-78
2023/08/02 03:35:06;;;;;;;3.00;2.70;;;;;;;;;;5036407;28;20544;-77
2023/08/02 03:37:33;;;;;;;3.77;2.80;;;;;;;;;;5036422;28;20969;-77
2023/08/02 03:40:01;;;;;;;3.40;2.60;;;;;;;;;;5035477;28;20468;-78
2023/08/02 03:42:28;;;;;;;2.60;1.93;;;;;;;;;;5036142;28;20586;-78
2023/08/02 03:44:55;;;;;;;7.53;3.10;;;;;;;;;;5036328;28;20450;-77
2023/08/02 03:47:23;;;;;;;3.40;2.60;;;;;;;;;;5036302;28;20449;-77
2023/08/02 03:49:50;;;;;;;3.83;2.47;;;;;;;;;;5035560;28;20456;-78
2023/08/02 03:52:17;;;;;;;7.10;2.80;;;;;;;;;;5034973;28;20465;-77
2023/08/02 03:54:44;;;;;;;3.40;2.80;;;;;;;;;;5034961;28;20445;-77
2023/08/02 03:57:12;;;;;;;5.13;2.43;;;;;;;;;;5034793;28;20833;-78
2023/08/02 03:59:39;;;;;;;4.87;3.10;;;;;;;;;;5034939;28;20458;-78
2023/08/02 04:02:07;;;;;;;4.47;2.70;;;;;;;;;;5035387;28;20496;-78
2023/08/02 04:04:34;;;;;;;4.50;2.50;;;;;;;;;;5034510;28;20449;-77
2023/08/02 04:07:01;;;;;;;3.90;2.80;;;;;;;;;;5034513;28;20952;-78
2023/08/02 04:09:28;;;;;;;3.13;2.40;;;;;;;;;;5035660;28;20454;-78
2023/08/02 04:11:56;;;;;;;3.17;2.57;;;;;;;;;;5036209;28;20903;-78
2023/08/02 04:14:24;;;;;;;3.17;2.87;;;;;;;;;;5039134;28;20453;-77
2023/08/02 04:16:51;;;;;;;3.03;2.20;;;;;;;;;;5038972;28;20460;-78
2023/08/02 04:19:18;;;;;;;3.23;2.60;;;;;;;;;;5039578;28;20974;-78
2023/08/02 04:21:45;;;;;;;4.03;2.27;;;;;;;;;;5038781;28;20462;-78
2023/08/02 04:24:13;;;;;;;5.50;4.10;;;;;;;;;;5038793;28;20496;-78
2023/08/02 04:26:40;;;;;;;5.10;3.83;;;;;;;;;;5039883;28;20456;-78
2023/08/02 04:29:07;;;;;;;3.80;3.50;;;;;;;;;;5038828;28;20938;-77
2023/08/02 04:31:35;;;;;;;3.73;3.33;;;;;;;;;;5038989;28;20468;-77
2023/08/02 04:34:02;;;;;;;4.00;3.00;;;;;;;;;;5038966;28;20950;-78
2023/08/02 04:36:30;;;;;;;8.40;2.93;;;;;;;;;;5039077;28;20453;-78
2023/08/02 04:38:57;;;;;;;5.93;2.67;;;;;;;;;;5038682;28;20788;-78
2023/08/02 04:41:24;;;;;;;3.90;3.23;;;;;;;;;;5038924;28;20491;-78
2023/08/02 04:43:51;;;;;;;8.90;2.90;;;;;;;;;;5038301;28;20488;-78
2023/08/02 04:46:18;;;;;;;4.13;2.60;;;;;;;;;;5038980;28;20453;-78
2023/08/02 04:48:47;;;;;;;3.57;2.50;;;;;;;;;;5038119;28;20454;-78
2023/08/02 04:51:14;;;;;;;6.50;5.03;;;;;;;;;;5038776;28;20470;-78
2023/08/02 04:53:42;;;;;;;6.87;6.17;;;;;;;;;;5038497;28;20789;-78
2023/08/02 04:56:10;;;;;;;3.90;3.03;;;;;;;;;;5039015;28;20499;-78
2023/08/02 04:58:37;;;;;;;5.07;4.23;;;;;;;;;;5038587;28;20544;-78
2023/08/02 05:01:04;;;;;;;3.80;3.50;;;;;;;;;;5038487;28;20914;-78
2023/08/02 05:03:31;;;;;;;2.53;2.30;;;;;;;;;;5038153;28;20500;-78
2023/08/02 05:06:00;;;;;;;3.20;2.77;;;;;;;;;;5038359;28;20468;-78
2023/08/02 05:08:30;;;;;;;4.00;2.27;;;;;;;;;;5039915;28;20526;-79
2023/08/02 05:10:57;;;;;;;3.50;3.20;;;;;;;;;;5038805;28;20453;-76
2023/08/02 05:13:24;;;;;;;4.30;2.60;;;;;;;;;;5037081;28;20446;-78
2023/08/02 05:15:52;;;;;;;3.43;3.10;;;;;;;;;;5035812;28;20888;-77
2023/08/02 05:18:19;;;;;;;3.90;2.10;;;;;;;;;;5034957;28;20782;-78
2023/08/02 05:20:46;;;;;;;3.30;2.40;;;;;;;;;;5035571;28;20820;-78
2023/08/02 05:23:14;;;;;;;2.20;2.00;;;;;;;;;;5036178;28;20485;-79
2023/08/02 05:25:42;;;;;;;3.97;3.57;;;;;;;;;;5036402;28;20547;-79
2023/08/02 05:28:09;;;;;;;3.00;2.60;;;;;;;;;;5035730;28;20458;-78
2023/08/02 05:30:37;;;;;;;3.30;2.20;;;;;;;;;;5035888;28;21004;-78
2023/08/02 05:33:06;;;;;;;3.67;2.63;;;;;;;;;;5036896;28;20933;-78
2023/08/02 05:35:34;;;;;;;2.90;2.40;;;;;;;;;;5036489;28;20458;-78
2023/08/02 05:38:01;;;;;;;2.73;2.30;;;;;;;;;;5036149;28;20912;-78
2023/08/02 05:40:29;;;;;;;6.03;1.90;;;;;;;;;;5035628;28;20449;-79
2023/08/02 05:42:56;;;;;;;2.67;1.63;;;;;;;;;;5036132;28;20576;-78
2023/08/02 05:45:23;;;;;;;2.80;1.80;;;;;;;;;;5036412;28;20640;-78
2023/08/02 05:47:51;;;;;;;4.80;2.10;;;;;;;;;;5036880;28;20449;-78
2023/08/02 05:50:18;;;;;;;3.60;1.67;;;;;;;;;;5036189;28;20482;-78
2023/08/02 05:52:45;;;;;;;2.60;1.67;;;;;;;;;;5035937;28;20539;-79
2023/08/02 05:55:12;;;;;;;3.20;1.97;;;;;;;;;;5036013;28;20922;-78
2023/08/02 05:57:41;;;;;;;5.40;2.43;;;;;;;;;;5035972;28;20568;-78
2023/08/02 06:00:09;;;;;;;3.30;2.37;;;;;;;;;;5064100;22;20500;-82
2023/08/02 06:02:37;;;;;;;3.10;2.20;;;;;;;;;;5078804;28;20452;-81
2023/08/02 06:05:04;;;;;;;2.87;2.50;;;;;;;;;;5082853;28;20497;-81
2023/08/02 06:07:32;;;;;;;2.20;1.80;;;;;;;;;;5082802;28;20511;-81
2023/08/02 06:09:59;;;;;;;2.13;1.90;;;;;;;;;;5081806;28;20826;-82
2023/08/02 06:12:26;;;;;;;3.20;1.90;;;;;;;;;;5082299;28;20471;-81
2023/08/02 06:14:54;;;;;;;4.80;2.37;;;;;;;;;;5082512;28;20452;-81
2023/08/02 06:17:21;;;;;;;4.27;2.87;;;;;;;;;;5081811;28;20448;-81
2023/08/02 06:19:49;;;;;;;3.03;2.10;;;;;;;;;;5082816;28;20465;-81
2023/08/02 06:22:16;;;;;;;3.80;2.30;;;;;;;;;;5081901;28;20472;-81
2023/08/02 06:24:43;;;;;;;2.20;1.90;;;;;;;;;;5082076;28;20518;-81
2023/08/02 06:27:11;;;;;;;5.10;2.30;;;;;;;;;;5082140;28;20997;-81
2023/08/02 06:29:38;;;;;;;2.93;2.63;;;;;;;;;;5082737;28;20948;-81
2023/08/02 06:32:07;;;;;;;4.00;2.37;;;;;;;;;;5081725;28;20476;-81
2023/08/02 06:34:34;;;;;;;6.40;2.10;;;;;;;;;;5080177;28;20450;-81
2023/08/02 06:37:01;;;;;;;2.60;2.20;;;;;;;;;;5082259;28;20455;-81
2023/08/02 06:39:29;;;;;;;3.90;2.10;;;;;;;;;;5082268;28;20479;-81
2023/08/02 06:41:56;;;;;;;2.80;2.20;;;;;;;;;;5082594;28;20471;-81
2023/08/02 06:44:23;;;;;;;3.80;2.50;;;;;;;;;;5082515;28;20491;-81
2023/08/02 06:46:50;;;;;;;3.47;2.80;;;;;;;;;;5081060;28;20434;-81
2023/08/02 06:49:18;;;;;;;3.07;2.30;;;;;;;;;;5081929;28;20466;-81
2023/08/02 06:51:46;;;;;;;4.27;2.77;;;;;;;;;;5083422;28;20979;-78
2023/08/02 06:54:13;;;;;;;3.97;2.40;;;;;;;;;;5084626;28;20459;-78
2023/08/02 06:56:40;;;;;;;6.70;2.50;;;;;;;;;;5084066;28;20944;-78
2023/08/02 06:59:07;;;;;;;5.50;2.60;;;;;;;;;;5083846;28;20550;-78
2023/08/02 07:01:34;;;;;;;3.70;2.27;;;;;;;;;;5083869;28;20578;-78
2023/08/02 07:04:01;;;;;;;2.30;2.10;;;;;;;;;;5082579;28;20954;-78
2023/08/02 07:06:30;;;;;;;5.30;2.37;;;;;;;;;;5075895;28;20502;-78
2023/08/02 07:08:57;;;;;;;5.47;2.17;;;;;;;;;;5083112;28;20455;-79
2023/08/02 07:11:24;;;;;;;4.40;2.20;;;;;;;;;;5081154;28;21042;-79
2023/08/02 07:13:51;;;;;;;5.27;3.63;;;;;;;;;;5081392;28;20454;-79
2023/08/02 07:16:18;;;;;;;2.40;1.97;;;;;;;;;;5082484;28;20471;-79
2023/08/02 07:18:46;;;;;;;3.10;2.23;;;;;;;;;;5081122;28;20848;-79
2023/08/02 07:21:13;;;;;;;2.63;1.97;;;;;;;;;;5081440;28;20547;-78
2023/08/02 07:23:42;;;;;;;2.50;1.97;;;;;;;;;;5082464;28;20493;-79
2023/08/02 07:26:09;;;;;;;3.70;2.23;;;;;;;;;;5081708;28;20788;-78
2023/08/02 07:28:36;;;;;;;3.27;2.47;;;;;;;;;;5081055;28;20462;-78
2023/08/02 07:31:07;;;;;;;2.23;2.03;;;;;;;;;;5080657;28;20474;-78
2023/08/02 07:33:34;;;;;;;3.37;2.30;;;;;;;;;;5080229;28;20448;-78
2023/08/02 07:36:01;;;;;;;4.90;2.10;;;;;;;;;;5082095;28;20823;-79
2023/08/02 07:38:28;;;;;;;3.07;2.50;;;;;;;;;;5080794;28;20463;-78
2023/08/02 07:40:57;;;;;;;2.73;2.30;;;;;;;;;;5081610;28;20535;-78
2023/08/02 07:43:24;;;;;;;4.50;3.70;;;;;;;;;;5081018;28;20483;-78
2023/08/02 07:45:51;;;;;;;2.33;2.13;;;;;;;;;;5082083;28;20458;-78
2023/08/02 07:48:18;;;;;;;6.83;1.90;;;;;;;;;;5082291;28;20448;-78
2023/08/02 07:50:46;;;;;;;2.50;1.83;;;;;;;;;;5081904;28;20461;-78
2023/08/02 07:53:13;;;;;;;2.70;2.20;;;;;;;;;;5082265;28;20915;-78
2023/08/02 07:55:40;;;;;;;2.50;2.00;;;;;;;;;;5084591;28;20454;-78
2023/08/02 07:58:08;;;;;;;11.33;2.33;;;;;;;;;;5083554;28;20533;-78
2023/08/02 08:00:36;;;;;;;3.80;2.17;;;;;;;;;;5084257;28;20467;-79
2023/08/02 08:03:03;;;;;;;3.50;1.67;;;;;;;;;;5083718;28;20528;-79
2023/08/02 08:05:31;;;;;;;6.30;2.27;;;;;;;;;;5084605;28;20448;-79
2023/08/02 08:07:58;;;;;;;5.43;1.87;;;;;;;;;;5083898;28;20448;-79
2023/08/02 08:10:25;;;;;;;3.60;2.37;;;;;;;;;;5083577;28;20904;-78
2023/08/02 08:12:52;;;;;;;3.40;2.03;;;;;;;;;;5081776;28;20978;-79
2023/08/02 08:15:21;;;;;;;4.00;2.07;;;;;;;;;;5081900;28;20443;-78
2023/08/02 08:17:48;;;;;;;3.10;2.30;;;;;;;;;;5081481;28;20474;-79
2023/08/02 08:20:15;;;;;;;3.87;3.03;;;;;;;;;;5080091;28;20448;-78
2023/08/02 08:22:42;;;;;;;2.43;2.10;;;;;;;;;;5079248;28;20480;-78
2023/08/02 08:25:09;;;;;;;3.33;2.23;;;;;;;;;;5079321;28;20494;-78
2023/08/02 08:27:37;;;;;;;2.33;2.00;;;;;;;;;;5076669;28;20452;-78
2023/08/02 08:30:04;;;;;;;2.10;1.90;;;;;;;;;;5077878;28;20546;-79
2023/08/02 08:32:33;;;;;;;4.37;2.00;;;;;;;;;;5076104;28;20470;-79
2023/08/02 08:35:01;;;;;;;3.60;2.10;;;;;;;;;;5076995;28;20451;-78
2023/08/02 08:37:28;;;;;;;2.20;1.63;;;;;;;;;;5077838;28;20452;-79
2023/08/02 08:39:55;;;;;;;2.40;1.70;;;;;;;;;;5077940;28;20456;-79
2023/08/02 08:42:23;;;;;;;2.27;1.97;;;;;;;;;;5078075;28;20459;-79
2023/08/02 08:44:50;;;;;;;3.00;1.80;;;;;;;;;;5073791;28;20497;-79
2023/08/02 08:47:19;;;;;;;2.93;1.73;;;;;;;;;;5077258;28;20456;-76
2023/08/02 08:49:48;;;;;;;2.33;1.77;;;;;;;;;;5077408;28;20960;-79
2023/08/02 08:52:16;;;;;;;3.03;1.90;;;;;;;;;;5077926;28;20478;-79
2023/08/02 08:54:45;;;;;;;7.60;2.03;;;;;;;;;;5078257;28;20455;-79
2023/08/02 08:57:12;;;;;;;2.67;1.90;;;;;;;;;;5078519;28;20947;-78
2023/08/02 08:59:40;;;;;;;2.20;2.00;;;;;;;;;;5082742;28;20462;-79
2023/08/02 09:02:08;;;;;;;3.00;2.17;;;;;;;;;;5084534;28;20478;-78
2023/08/02 09:04:35;;;;;;;3.00;1.60;;;;;;;;;;5084333;28;20498;-76
2023/08/02 09:07:04;;;;;;;4.07;2.80;;;;;;;;;;5080951;28;20464;-78
2023/08/02 09:09:31;;;;;;;2.47;1.90;;;;;;;;;;5083017;28;20831;-78
2023/08/02 09:11:59;;;;;;;2.40;1.87;;;;;;;;;;5083663;28;20479;-78
2023/08/02 09:14:26;;;;;;;2.83;2.63;;;;;;;;;;5081226;28;20814;-78
2023/08/02 09:17:00;;;;;;;6.67;1.87;;;;;;;;;;5079584;28;20459;-78
2023/08/02 09:19:28;;;;;;;3.10;1.93;;;;;;;;;;5079617;28;20447;-78
2023/08/02 09:22:12;;;;;;;2.10;1.90;;;;;;;;;;5079994;28;20471;-79
2023/08/02 09:24:40;;;;;;;2.53;2.03;;;;;;;;;;5079728;28;20491;-79
2023/08/02 09:27:08;;;;;;;3.53;2.00;;;;;;;;;;5080173;28;20928;-79
2023/08/02 09:29:43;;;;;;;3.27;1.90;;;;;;;;;;5080614;28;20463;-79
2023/08/02 09:32:11;;;;;;;2.60;1.83;;;;;;;;;;5079849;28;20479;-78
2023/08/02 09:34:48;;;;;;;2.60;1.93;;;;;;;;;;5082829;28;20452;-79
2023/08/02 09:37:17;;;;;;;3.17;2.03;;;;;;;;;;5088259;28;20462;-78
2023/08/02 09:39:50;;;;;;;3.70;2.20;;;;;;;;;;5086208;28;20955;-79
2023/08/02 09:42:18;;;;;;;4.17;2.27;;;;;;;;;;5085971;28;20456;-78
2023/08/02 09:44:52;;;;;;;3.57;2.27;;;;;;;;;;5086386;28;20909;-79
2023/08/02 09:47:19;;;;;;;3.13;1.83;;;;;;;;;;5086150;28;20478;-79
2023/08/02 09:49:46;;;;;;;3.27;2.33;;;;;;;;;;5086353;28;20451;-79
2023/08/02 09:52:27;;;;;;;4.03;3.30;;;;;;;;;;5086477;28;20486;-79
2023/08/02 09:54:55;;;;;;;4.47;2.10;;;;;;;;;;5086276;28;20455;-79
2023/08/02 09:57:23;;;;;;;2.47;2.27;;;;;;;;;;5085562;28;20463;-79
2023/08/02 09:59:50;;;;;;;2.03;1.70;;;;;;;;;;5086467;28;20526;-78
2023/08/02 10:02:18;;;;;;;2.93;2.00;;;;;;;;;;5078601;28;20493;-79
2023/08/02 10:04:45;;;;;;;2.50;2.07;;;;;;;;;;5065172;28;20500;-79
2023/08/02 10:07:13;;;;;;;2.80;2.00;;;;;;;;;;5065306;28;20956;-79
2023/08/02 10:09:42;;;;;;;4.40;2.70;;;;;;;;;;5065903;28;20457;-79
2023/08/02 10:12:11;;;;;;;3.80;2.17;;;;;;;;;;5065498;28;20472;-78
2023/08/02 10:14:38;;;;;;;4.77;2.30;;;;;;;;;;5064803;28;20479;-79
2023/08/02 10:17:05;;;;;;;3.00;2.37;;;;;;;;;;5066450;28;20462;-79
2023/08/02 10:19:34;;;;;;;2.93;1.73;;;;;;;;;;5066615;28;20451;-79
2023/08/02 10:22:03;;;;;;;3.93;2.17;;;;;;;;;;5065510;28;20534;-79
2023/08/02 10:24:30;;;;;;;3.00;2.17;;;;;;;;;;5065678;28;20972;-79
2023/08/02 10:26:59;;;;;;;2.50;1.90;;;;;;;;;;5064994;28;20528;-79
2023/08/02 10:29:27;;;;;;;2.30;2.07;;;;;;;;;;5063778;28;20522;-79
2023/08/02 10:31:54;;;;;;;4.00;2.70;;;;;;;;;;5063021;28;20491;-78
2023/08/02 10:34:44;;;;;;;2.77;2.07;;;;;;;;;;5062573;28;20483;-79
2023/08/02 10:37:12;;;;;;;2.73;2.33;;;;;;;;;;5062491;28;20445;-79
2023/08/02 10:39:55;;;;;;;2.53;2.30;;;;;;;;;;5061263;28;20445;-79
2023/08/02 10:42:24;;;;;;;4.87;2.20;;;;;;;;;;5060769;28;20465;-79
2023/08/02 10:45:06;;;;;;;2.87;2.10;;;;;;;;;;5061663;28;20503;-79
2023/08/02 10:47:33;;;;;;;2.87;2.07;;;;;;;;;;5057149;28;20448;-78
2023/08/02 10:50:01;;;;;;;2.90;2.30;;;;;;;;;;5058418;28;20453;-81
2023/08/02 10:52:32;;;;;;;3.70;2.43;;;;;;;;;;5059066;28;20976;-81
2023/08/02 10:55:13;;;;;;;2.93;2.33;;;;;;;;;;5058460;28;20453;-81
2023/08/02 10:57:42;;;;;;;2.50;1.80;;;;;;;;;;5059512;28;20448;-81
2023/08/02 11:00:15;;;;;;;2.90;2.30;;;;;;;;;;5058450;28;20457;-81
2023/08/02 11:02:47;;;;;;;2.47;2.00;;;;;;;;;;5058582;28;20464;-81
2023/08/02 11:05:14;;;;;;;3.50;2.07;;;;;;;;;;5058429;28;20569;-81
2023/08/02 11:07:41;;;;;;;2.47;1.90;;;;;;;;;;5059362;28;20460;-81
2023/08/02 11:10:10;;;;;;;4.77;2.83;;;;;;;;;;5059690;28;20544;-81
2023/08/02 11:12:37;;;;;;;2.23;2.03;;;;;;;;;;5059157;28;20477;-81
2023/08/02 11:15:16;;;;;;;2.40;1.80;;;;;;;;;;5059503;28;20448;-81
2023/08/02 11:17:43;;;;;;;3.20;2.27;;;;;;;;;;5059488;28;20432;-81
2023/08/02 11:20:10;;;;;;;2.80;2.00;;;;;;;;;;5057693;28;20461;-82
2023/08/02 11:22:37;;;;;;;5.37;4.20;;;;;;;;;;5057047;28;20833;-81
2023/08/02 11:25:06;;;;;;;5.47;4.00;;;;;;;;;;5056774;28;20484;-81
2023/08/02 11:27:34;;;;;;;5.27;3.40;;;;;;;;;;5057376;28;20445;-82
2023/08/02 11:30:02;;;;;;;4.83;3.63;;;;;;;;;;5056354;28;20464;-81
2023/08/02 11:32:32;;;;;;;5.10;3.10;;;;;;;;;;5056913;28;20469;-82
2023/08/02 11:34:59;;;;;;;3.90;3.13;;;;;;;;;;5058006;28;20536;-81
2023/08/02 11:37:27;;;;;;;4.10;2.97;;;;;;;;;;5057066;28;20449;-81
2023/08/02 11:39:54;;;;;;;3.17;2.50;;;;;;;;;;5057375;28;20459;-81
2023/08/02 11:42:21;;;;;;;3.40;2.60;;;;;;;;;;5057175;28;20484;-81
2023/08/02 11:44:49;;;;;;;7.07;3.70;;;;;;;;;;5056175;28;20499;-81
2023/08/02 11:47:16;;;;;;;4.83;3.73;;;;;;;;;;5055028;28;20425;-80
2023/08/02 11:49:51;;;;;;;2.50;2.30;;;;;;;;;;5055983;28;20532;-81
2023/08/02 11:52:25;;;;;;;3.10;2.63;;;;;;;;;;5055430;28;20477;-81
2023/08/02 11:54:53;;;;;;;4.00;2.70;;;;;;;;;;5056058;28;20909;-82
2023/08/02 11:57:21;;;;;;;2.60;2.37;;;;;;;;;;5056689;28;20457;-81
2023/08/02 11:59:49;;;;;;;3.00;2.13;;;;;;;;;;5055622;28;20471;-82
2023/08/02 12:02:23;;;;;;;3.40;2.40;;;;;;;;;;5055880;28;20499;-82
2023/08/02 12:04:52;;;;;;;2.90;2.30;;;;;;;;;;5055717;28;20831;-81
2023/08/02 12:07:25;;;;;;;2.67;2.30;;;;;;;;;;5055682;28;20894;-83
2023/08/02 12:09:54;;;;;;;6.33;2.83;;;;;;;;;;5055224;28;20453;-83
2023/08/02 12:12:21;;;;;;;3.90;3.37;;;;;;;;;;5054717;28;20503;-82
2023/08/02 12:14:48;;;;;;;5.27;3.40;;;;;;;;;;5055500;28;20463;-82
2023/08/02 12:17:19;;;;;;;2.67;2.40;;;;;;;;;;5055271;28;20886;-82
2023/08/02 12:19:46;;;;;;;4.10;2.70;;;;;;;;;;5055769;28;20455;-82
2023/08/02 12:22:14;;;;;;;5.10;3.33;;;;;;;;;;5054932;28;20461;-82
2023/08/02 12:24:42;;;;;;;3.10;2.63;;;;;;;;;;5054941;28;20495;-82
2023/08/02 12:27:12;;;;;;;4.97;4.00;;;;;;;;;;5055282;28;20451;-82
2023/08/02 12:29:39;;;;;;;4.50;2.70;;;;;;;;;;5055876;28;20459;-82
2023/08/02 12:32:07;;;;;;;3.47;2.30;;;;;;;;;;5055017;28;20468;-82
2023/08/02 12:34:36;;;;;;;4.20;3.47;;;;;;;;;;5058769;28;20826;-82
2023/08/02 12:37:03;;;;;;;4.40;2.30;;;;;;;;;;5059355;28;20952;-82
2023/08/02 12:39:32;;;;;;;3.10;2.30;;;;;;;;;;5059223;28;20460;-82
2023/08/02 12:41:59;;;;;;;3.37;2.30;;;;;;;;;;5057558;28;20583;-80
2023/08/02 12:44:26;;;;;;;5.93;2.30;;;;;;;;;;5058521;28;20453;-80
2023/08/02 12:46:53;;;;;;;2.57;2.13;;;;;;;;;;5058976;28;20456;-81
2023/08/02 12:49:20;;;;;;;5.67;2.80;;;;;;;;;;5058385;28;20456;-80
2023/08/02 12:51:47;;;;;;;4.07;2.10;;;;;;;;;;5058721;28;20472;-81
2023/08/02 12:54:14;;;;;;;3.40;2.33;;;;;;;;;;5058263;28;20823;-83
2023/08/02 12:56:43;;;;;;;3.63;2.23;;;;;;;;;;5058148;28;20462;-82
2023/08/02 12:59:10;;;;;;;4.00;2.30;;;;;;;;;;5059324;28;20471;-82
2023/08/02 13:01:37;;;;;;;4.00;2.10;;;;;;;;;;5058759;28;20507;-82
2023/08/02 13:04:05;;;;;;;2.80;2.23;;;;;;;;;;5059407;28;20506;-83
2023/08/02 13:06:32;;;;;;;2.73;2.30;;;;;;;;;;5059395;28;20480;-83
2023/08/02 13:08:59;;;;;;;2.37;2.13;;;;;;;;;;5059079;28;20779;-83
2023/08/02 13:11:27;;;;;;;2.83;2.07;;;;;;;;;;5059064;28;21032;-82
2023/08/02 13:13:55;;;;;;;2.70;2.27;;;;;;;;;;5059488;28;20455;-82
2023/08/02 13:16:23;;;;;;;2.83;2.03;;;;;;;;;;5058772;28;20456;-82
2023/08/02 13:18:50;;;;;;;5.20;3.30;;;;;;;;;;5060209;28;20452;-82
2023/08/02 13:21:19;;;;;;;5.27;2.47;;;;;;;;;;5060397;28;20490;-82
2023/08/02 13:23:47;;;;;;;3.43;2.13;;;;;;;;;;5060296;28;20511;-83
2023/08/02 13:26:14;;;;;;;3.10;2.33;;;;;;;;;;5059848;28;20480;-82
2023/08/02 13:28:41;;;;;;;2.93;2.47;;;;;;;;;;5060228;28;20452;-82
2023/08/02 13:31:09;;;;;;;8.40;2.60;;;;;;;;;;5060568;28;20472;-82
2023/08/02 13:33:41;;;;;;;2.97;2.17;;;;;;;;;;5060173;28;20531;-81
2023/08/02 13:36:08;;;;;;;5.77;2.13;;;;;;;;;;5059672;28;20453;-83
2023/08/02 13:38:35;;;;;;;4.53;2.40;;;;;;;;;;5058709;28;20451;-83
2023/08/02 13:41:03;;;;;;;3.10;2.17;;;;;;;;;;5057918;28;20481;-82
2023/08/02 13:43:30;;;;;;;4.37;3.17;;;;;;;;;;5057941;28;20500;-83
2023/08/02 13:45:57;;;;;;;3.00;2.43;;;;;;;;;;5057436;28;20485;-83
2023/08/02 13:48:26;;;;;;;3.20;2.27;;;;;;;;;;5058012;28;20960;-82
2023/08/02 13:50:53;;;;;;;2.80;2.17;;;;;;;;;;5058014;28;20916;-83
2023/08/02 13:53:20;;;;;;;3.87;2.10;;;;;;;;;;5057892;28;20453;-82
2023/08/02 13:55:47;;;;;;;2.30;1.90;;;;;;;;;;5057668;28;20823;-83
2023/08/02 13:58:14;;;;;;;2.10;1.90;;;;;;;;;;5057165;28;20464;-82
2023/08/02 14:00:41;;;;;;;3.07;2.43;;;;;;;;;;5057907;28;20457;-82
2023/08/02 14:03:08;;;;;;;3.23;2.20;;;;;;;;;;5057463;28;20941;-83
2023/08/02 14:05:37;;;;;;;2.87;2.37;;;;;;;;;;5057238;28;20504;-84
2023/08/02 14:08:04;;;;;;;2.13;1.90;;;;;;;;;;5057157;28;20437;-82
2023/08/02 14:10:31;;;;;;;5.33;2.57;;;;;;;;;;5058030;28;20448;-81
2023/08/02 14:12:58;;;;;;;2.63;1.73;;;;;;;;;;5057189;28;20591;-83
2023/08/02 14:15:25;;;;;;;4.97;2.20;;;;;;;;;;5058195;28;20449;-84
2023/08/02 14:17:53;;;;;;;2.00;1.60;;;;;;;;;;5057440;28;20460;-83
2023/08/02 14:20:20;;;;;;;3.30;2.40;;;;;;;;;;5057544;28;20460;-83
2023/08/02 14:22:48;;;;;;;4.27;2.80;;;;;;;;;;5056884;28;20464;-83
2023/08/02 14:25:15;;;;;;;4.33;2.57;;;;;;;;;;5057314;28;20545;-83
2023/08/02 14:27:42;;;;;;;4.27;2.27;;;;;;;;;;5058078;28;20822;-83
2023/08/02 14:30:10;;;;;;;2.60;2.40;;;;;;;;;;5057231;28;20949;-82
2023/08/02 14:32:37;;;;;;;2.50;2.20;;;;;;;;;;5057129;28;20475;-83
2023/08/02 14:35:04;;;;;;;2.70;2.30;;;;;;;;;;5058033;28;20467;-83
2023/08/02 14:37:31;;;;;;;2.50;2.30;;;;;;;;;;5057611;28;20448;-83
2023/08/02 14:40:00;;;;;;;2.83;2.00;;;;;;;;;;5057057;28;20472;-83
2023/08/02 14:42:27;;;;;;;3.00;2.70;;;;;;;;;;5057087;28;20481;-83
2023/08/02 14:44:54;;;;;;;5.10;2.80;;;;;;;;;;5056967;28;20800;-84
2023/08/02 14:47:21;;;;;;;6.90;2.00;;;;;;;;;;5056497;28;20834;-83